Terminal Aerodrome Forecast
Issued by NWS Raleigh/Durham, NC

Home | Current Version | Previous Version | Text Only | Print | Product List | Glossary On
Versions: 1 2 3 4 5 6 7 8 9 10 11 12 13 14
000
FTUS42 KRAH 240530
TAFRDU
TAF
KRDU 240530Z 2406/2506 VRB03KT P6SM FEW060
      TEMPO 2409/2413 3SM BR SCT004
     FM241300 17004KT P6SM SCT020
      TEMPO 2413/2416 BKN020
     FM241700 18006KT P6SM SCT040=

USA.gov is the U.S. government's official web portal to all federal, state and local government web resources and services.